sensor_id;sensor_type;location;lat;lon;timestamp;P1;durP1;ratioP1;P2;durP2;ratioP2
63807;SDS011;49961;43.970;22.868;2022-07-29T00:00:10;4.63;;;3.80;;
63807;SDS011;49961;43.970;22.868;2022-07-29T00:01:14;4.03;;;3.50;;
63807;SDS011;49961;43.970;22.868;2022-07-29T00:02:15;4.40;;;3.90;;
63807;SDS011;49961;43.970;22.868;2022-07-29T00:03:16;4.00;;;3.60;;
63807;SDS011;49961;43.970;22.868;2022-07-29T00:04:16;4.47;;;3.90;;
63807;SDS011;49961;43.970;22.868;2022-07-29T00:05:17;4.50;;;3.83;;
63807;SDS011;49961;43.970;22.868;2022-07-29T00:06:17;4.23;;;3.83;;
63807;SDS011;49961;43.970;22.868;2022-07-29T00:07:18;6.43;;;3.80;;
63807;SDS011;49961;43.970;22.868;2022-07-29T00:08:18;4.23;;;3.80;;
63807;SDS011;49961;43.970;22.868;2022-07-29T00:09:19;4.20;;;3.80;;
63807;SDS011;49961;43.970;22.868;2022-07-29T00:10:19;4.87;;;4.00;;
63807;SDS011;49961;43.970;22.868;2022-07-29T00:11:20;4.63;;;4.10;;
63807;SDS011;49961;43.970;22.868;2022-07-29T00:12:22;4.73;;;4.13;;
63807;SDS011;49961;43.970;22.868;2022-07-29T00:13:24;5.63;;;4.20;;
63807;SDS011;49961;43.970;22.868;2022-07-29T00:14:24;5.30;;;3.97;;
63807;SDS011;49961;43.970;22.868;2022-07-29T00:15:25;5.50;;;4.10;;
63807;SDS011;49961;43.970;22.868;2022-07-29T00:16:25;6.77;;;4.30;;
63807;SDS011;49961;43.970;22.868;2022-07-29T00:17:26;6.10;;;4.17;;
63807;SDS011;49961;43.970;22.868;2022-07-29T00:18:26;5.00;;;3.83;;
63807;SDS011;49961;43.970;22.868;2022-07-29T00:19:27;7.67;;;4.63;;
63807;SDS011;49961;43.970;22.868;2022-07-29T00:20:27;6.17;;;4.47;;
63807;SDS011;49961;43.970;22.868;2022-07-29T00:21:28;5.10;;;4.17;;
63807;SDS011;49961;43.970;22.868;2022-07-29T00:22:29;4.77;;;4.20;;
63807;SDS011;49961;43.970;22.868;2022-07-29T00:23:29;5.77;;;4.60;;
63807;SDS011;49961;43.970;22.868;2022-07-29T00:24:30;6.07;;;4.40;;
63807;SDS011;49961;43.970;22.868;2022-07-29T00:25:30;5.97;;;4.43;;
63807;SDS011;49961;43.970;22.868;2022-07-29T00:26:31;5.77;;;4.20;;
63807;SDS011;49961;43.970;22.868;2022-07-29T00:27:32;7.23;;;4.53;;
63807;SDS011;49961;43.970;22.868;2022-07-29T00:28:33;4.90;;;4.43;;
63807;SDS011;49961;43.970;22.868;2022-07-29T00:29:33;4.63;;;4.10;;
63807;SDS011;49961;43.970;22.868;2022-07-29T00:30:34;5.77;;;4.53;;
63807;SDS011;49961;43.970;22.868;2022-07-29T00:31:34;5.37;;;4.10;;
63807;SDS011;49961;43.970;22.868;2022-07-29T00:32:34;5.00;;;4.50;;
63807;SDS011;49961;43.970;22.868;2022-07-29T00:33:35;4.73;;;4.10;;
63807;SDS011;49961;43.970;22.868;2022-07-29T00:34:35;4.53;;;3.87;;
63807;SDS011;49961;43.970;22.868;2022-07-29T00:35:55;4.90;;;3.90;;
63807;SDS011;49961;43.970;22.868;2022-07-29T00:36:55;7.70;;;4.37;;
63807;SDS011;49961;43.970;22.868;2022-07-29T00:37:56;6.03;;;4.53;;
63807;SDS011;49961;43.970;22.868;2022-07-29T00:38:57;5.37;;;4.43;;
63807;SDS011;49961;43.970;22.868;2022-07-29T00:39:57;5.67;;;4.33;;
63807;SDS011;49961;43.970;22.868;2022-07-29T00:40:57;5.47;;;4.70;;
63807;SDS011;49961;43.970;22.868;2022-07-29T00:41:58;6.70;;;4.77;;
63807;SDS011;49961;43.970;22.868;2022-07-29T00:42:58;6.47;;;4.40;;
63807;SDS011;49961;43.970;22.868;2022-07-29T00:43:59;7.47;;;4.83;;
63807;SDS011;49961;43.970;22.868;2022-07-29T00:44:59;6.87;;;4.63;;
63807;SDS011;49961;43.970;22.868;2022-07-29T00:46:00;5.70;;;4.87;;
63807;SDS011;49961;43.970;22.868;2022-07-29T00:47:00;6.57;;;4.40;;
63807;SDS011;49961;43.970;22.868;2022-07-29T00:48:01;7.97;;;4.17;;
63807;SDS011;49961;43.970;22.868;2022-07-29T00:49:04;4.63;;;4.17;;
63807;SDS011;49961;43.970;22.868;2022-07-29T00:50:07;6.83;;;4.23;;
63807;SDS011;49961;43.970;22.868;2022-07-29T00:51:10;5.73;;;4.07;;
63807;SDS011;49961;43.970;22.868;2022-07-29T00:52:11;5.00;;;3.90;;
63807;SDS011;49961;43.970;22.868;2022-07-29T00:53:12;5.30;;;4.03;;
63807;SDS011;49961;43.970;22.868;2022-07-29T00:54:12;9.10;;;4.33;;
63807;SDS011;49961;43.970;22.868;2022-07-29T00:55:13;5.40;;;4.37;;
63807;SDS011;49961;43.970;22.868;2022-07-29T00:56:15;5.40;;;4.17;;
63807;SDS011;49961;43.970;22.868;2022-07-29T00:57:16;5.73;;;4.20;;
63807;SDS011;49961;43.970;22.868;2022-07-29T00:58:16;4.67;;;4.20;;
63807;SDS011;49961;43.970;22.868;2022-07-29T00:59:17;5.50;;;4.03;;
63807;SDS011;49961;43.970;22.868;2022-07-29T01:00:22;6.17;;;4.00;;
63807;SDS011;49961;43.970;22.868;2022-07-29T01:01:23;6.83;;;4.00;;
63807;SDS011;49961;43.970;22.868;2022-07-29T01:02:24;4.70;;;3.90;;
63807;SDS011;49961;43.970;22.868;2022-07-29T01:03:25;4.83;;;4.00;;
63807;SDS011;49961;43.970;22.868;2022-07-29T01:04:25;4.70;;;3.60;;
63807;SDS011;49961;43.970;22.868;2022-07-29T01:05:26;4.67;;;4.10;;
63807;SDS011;49961;43.970;22.868;2022-07-29T01:06:29;5.33;;;3.83;;
63807;SDS011;49961;43.970;22.868;2022-07-29T01:07:30;5.77;;;3.77;;
63807;SDS011;49961;43.970;22.868;2022-07-29T01:08:32;5.07;;;4.07;;
63807;SDS011;49961;43.970;22.868;2022-07-29T01:09:33;3.90;;;3.27;;
63807;SDS011;49961;43.970;22.868;2022-07-29T01:10:35;5.53;;;3.83;;
63807;SDS011;49961;43.970;22.868;2022-07-29T01:11:37;6.53;;;3.77;;
63807;SDS011;49961;43.970;22.868;2022-07-29T01:12:39;5.23;;;3.47;;
63807;SDS011;49961;43.970;22.868;2022-07-29T01:13:40;4.40;;;3.40;;
63807;SDS011;49961;43.970;22.868;2022-07-29T01:14:42;3.63;;;3.20;;
63807;SDS011;49961;43.970;22.868;2022-07-29T01:15:46;5.03;;;3.70;;
63807;SDS011;49961;43.970;22.868;2022-07-29T01:16:51;4.63;;;3.20;;
63807;SDS011;49961;43.970;22.868;2022-07-29T01:18:04;5.30;;;3.60;;
63807;SDS011;49961;43.970;22.868;2022-07-29T01:19:55;6.87;;;3.33;;
63807;SDS011;49961;43.970;22.868;2022-07-29T01:22:28;6.80;;;3.70;;
63807;SDS011;49961;43.970;22.868;2022-07-29T01:26:33;4.87;;;3.53;;
63807;SDS011;49961;43.970;22.868;2022-07-29T01:29:01;4.40;;;3.43;;
63807;SDS011;49961;43.970;22.868;2022-07-29T01:30:11;6.30;;;3.30;;
63807;SDS011;49961;43.970;22.868;2022-07-29T01:31:12;6.33;;;3.50;;
63807;SDS011;49961;43.970;22.868;2022-07-29T01:32:19;3.43;;;3.13;;
63807;SDS011;49961;43.970;22.868;2022-07-29T01:33:24;4.60;;;3.63;;
63807;SDS011;49961;43.970;22.868;2022-07-29T01:34:48;6.27;;;3.60;;
63807;SDS011;49961;43.970;22.868;2022-07-29T01:35:54;6.93;;;3.33;;
63807;SDS011;49961;43.970;22.868;2022-07-29T01:36:59;4.47;;;3.40;;
63807;SDS011;49961;43.970;22.868;2022-07-29T01:38:21;4.60;;;3.40;;
63807;SDS011;49961;43.970;22.868;2022-07-29T01:39:30;4.00;;;3.07;;
63807;SDS011;49961;43.970;22.868;2022-07-29T01:40:40;4.37;;;3.43;;
63807;SDS011;49961;43.970;22.868;2022-07-29T01:41:50;5.30;;;3.40;;
63807;SDS011;49961;43.970;22.868;2022-07-29T01:43:17;3.63;;;3.30;;
63807;SDS011;49961;43.970;22.868;2022-07-29T01:44:27;6.30;;;3.60;;
63807;SDS011;49961;43.970;22.868;2022-07-29T01:45:38;4.13;;;3.40;;
63807;SDS011;49961;43.970;22.868;2022-07-29T01:46:44;4.40;;;3.30;;
63807;SDS011;49961;43.970;22.868;2022-07-29T01:47:59;5.73;;;3.30;;
63807;SDS011;49961;43.970;22.868;2022-07-29T01:49:25;4.57;;;3.50;;
63807;SDS011;49961;43.970;22.868;2022-07-29T01:50:29;3.43;;;3.13;;
63807;SDS011;49961;43.970;22.868;2022-07-29T01:51:57;4.43;;;3.10;;
63807;SDS011;49961;43.970;22.868;2022-07-29T01:53:01;5.07;;;3.40;;
63807;SDS011;49961;43.970;22.868;2022-07-29T01:54:13;7.90;;;3.40;;
63807;SDS011;49961;43.970;22.868;2022-07-29T01:55:19;4.57;;;3.03;;
63807;SDS011;49961;43.970;22.868;2022-07-29T01:56:22;4.37;;;3.20;;
63807;SDS011;49961;43.970;22.868;2022-07-29T01:57:28;4.93;;;3.33;;
63807;SDS011;49961;43.970;22.868;2022-07-29T01:58:31;5.50;;;3.30;;
63807;SDS011;49961;43.970;22.868;2022-07-29T01:59:35;5.07;;;3.50;;
63807;SDS011;49961;43.970;22.868;2022-07-29T02:00:37;4.37;;;3.23;;
63807;SDS011;49961;43.970;22.868;2022-07-29T02:01:39;4.67;;;3.20;;
63807;SDS011;49961;43.970;22.868;2022-07-29T02:02:42;5.33;;;3.33;;
63807;SDS011;49961;43.970;22.868;2022-07-29T02:03:46;4.83;;;3.43;;
63807;SDS011;49961;43.970;22.868;2022-07-29T02:04:47;3.63;;;3.10;;
63807;SDS011;49961;43.970;22.868;2022-07-29T02:05:50;4.27;;;3.17;;
63807;SDS011;49961;43.970;22.868;2022-07-29T02:06:53;5.03;;;3.43;;
63807;SDS011;49961;43.970;22.868;2022-07-29T02:07:58;3.40;;;3.10;;
63807;SDS011;49961;43.970;22.868;2022-07-29T02:09:01;5.43;;;3.40;;
63807;SDS011;49961;43.970;22.868;2022-07-29T02:10:03;4.50;;;3.43;;
63807;SDS011;49961;43.970;22.868;2022-07-29T02:11:06;4.43;;;3.70;;
63807;SDS011;49961;43.970;22.868;2022-07-29T02:12:08;5.53;;;3.40;;
63807;SDS011;49961;43.970;22.868;2022-07-29T02:13:11;4.67;;;3.73;;
63807;SDS011;49961;43.970;22.868;2022-07-29T02:14:13;4.10;;;3.70;;
63807;SDS011;49961;43.970;22.868;2022-07-29T02:15:15;4.27;;;3.80;;
63807;SDS011;49961;43.970;22.868;2022-07-29T02:16:16;4.63;;;4.23;;
63807;SDS011;49961;43.970;22.868;2022-07-29T02:17:22;6.60;;;3.67;;
63807;SDS011;49961;43.970;22.868;2022-07-29T02:18:26;4.87;;;3.97;;
63807;SDS011;49961;43.970;22.868;2022-07-29T02:19:31;9.80;;;4.03;;
63807;SDS011;49961;43.970;22.868;2022-07-29T02:20:33;6.13;;;3.80;;
63807;SDS011;49961;43.970;22.868;2022-07-29T02:21:34;7.63;;;4.27;;
63807;SDS011;49961;43.970;22.868;2022-07-29T02:22:37;6.83;;;3.97;;
63807;SDS011;49961;43.970;22.868;2022-07-29T02:23:39;7.73;;;4.07;;
63807;SDS011;49961;43.970;22.868;2022-07-29T02:24:39;5.83;;;4.03;;
63807;SDS011;49961;43.970;22.868;2022-07-29T02:25:42;4.90;;;4.40;;
63807;SDS011;49961;43.970;22.868;2022-07-29T02:26:43;5.97;;;4.67;;
63807;SDS011;49961;43.970;22.868;2022-07-29T02:27:45;6.87;;;4.47;;
63807;SDS011;49961;43.970;22.868;2022-07-29T02:28:47;5.77;;;4.87;;
63807;SDS011;49961;43.970;22.868;2022-07-29T02:29:50;5.57;;;4.40;;
63807;SDS011;49961;43.970;22.868;2022-07-29T02:30:52;7.10;;;4.73;;
63807;SDS011;49961;43.970;22.868;2022-07-29T02:31:54;5.73;;;4.43;;
63807;SDS011;49961;43.970;22.868;2022-07-29T02:32:57;5.63;;;4.63;;
63807;SDS011;49961;43.970;22.868;2022-07-29T02:33:58;5.73;;;4.67;;
63807;SDS011;49961;43.970;22.868;2022-07-29T02:35:03;5.10;;;4.60;;
63807;SDS011;49961;43.970;22.868;2022-07-29T02:36:04;5.63;;;4.60;;
63807;SDS011;49961;43.970;22.868;2022-07-29T02:37:05;5.10;;;4.50;;
63807;SDS011;49961;43.970;22.868;2022-07-29T02:38:11;5.07;;;4.23;;
63807;SDS011;49961;43.970;22.868;2022-07-29T02:39:32;6.40;;;4.80;;
63807;SDS011;49961;43.970;22.868;2022-07-29T02:40:34;6.67;;;4.97;;
63807;SDS011;49961;43.970;22.868;2022-07-29T02:41:50;5.30;;;4.80;;
63807;SDS011;49961;43.970;22.868;2022-07-29T02:42:55;6.67;;;4.90;;
63807;SDS011;49961;43.970;22.868;2022-07-29T02:43:56;8.13;;;4.63;;
63807;SDS011;49961;43.970;22.868;2022-07-29T02:45:01;4.97;;;4.40;;
63807;SDS011;49961;43.970;22.868;2022-07-29T02:46:03;7.93;;;4.77;;
63807;SDS011;49961;43.970;22.868;2022-07-29T02:47:19;6.13;;;4.43;;
63807;SDS011;49961;43.970;22.868;2022-07-29T02:48:22;7.70;;;4.83;;
63807;SDS011;49961;43.970;22.868;2022-07-29T02:49:35;7.57;;;4.87;;
63807;SDS011;49961;43.970;22.868;2022-07-29T02:50:43;6.80;;;4.70;;
63807;SDS011;49961;43.970;22.868;2022-07-29T02:51:57;10.03;;;5.13;;
63807;SDS011;49961;43.970;22.868;2022-07-29T02:53:12;6.40;;;4.70;;
63807;SDS011;49961;43.970;22.868;2022-07-29T02:54:26;4.57;;;4.13;;
63807;SDS011;49961;43.970;22.868;2022-07-29T02:56:13;6.47;;;4.43;;
63807;SDS011;49961;43.970;22.868;2022-07-29T02:57:14;7.17;;;4.53;;
63807;SDS011;49961;43.970;22.868;2022-07-29T02:58:21;6.97;;;4.23;;
63807;SDS011;49961;43.970;22.868;2022-07-29T02:59:28;4.83;;;4.33;;
63807;SDS011;49961;43.970;22.868;2022-07-29T03:00:34;5.83;;;4.30;;
63807;SDS011;49961;43.970;22.868;2022-07-29T03:01:38;4.70;;;4.30;;
63807;SDS011;49961;43.970;22.868;2022-07-29T03:02:44;4.77;;;4.27;;
63807;SDS011;49961;43.970;22.868;2022-07-29T03:03:51;7.60;;;4.50;;
63807;SDS011;49961;43.970;22.868;2022-07-29T03:04:53;5.27;;;4.50;;
63807;SDS011;49961;43.970;22.868;2022-07-29T03:05:58;5.90;;;5.00;;
63807;SDS011;49961;43.970;22.868;2022-07-29T03:07:01;6.53;;;4.63;;
63807;SDS011;49961;43.970;22.868;2022-07-29T03:08:06;6.97;;;5.20;;
63807;SDS011;49961;43.970;22.868;2022-07-29T03:09:10;4.67;;;4.17;;
63807;SDS011;49961;43.970;22.868;2022-07-29T03:10:13;5.30;;;4.50;;
63807;SDS011;49961;43.970;22.868;2022-07-29T03:11:13;5.47;;;4.77;;
63807;SDS011;49961;43.970;22.868;2022-07-29T03:12:15;8.43;;;4.80;;
63807;SDS011;49961;43.970;22.868;2022-07-29T03:13:16;7.10;;;4.60;;
63807;SDS011;49961;43.970;22.868;2022-07-29T03:14:18;12.17;;;4.90;;
63807;SDS011;49961;43.970;22.868;2022-07-29T03:15:19;6.83;;;4.43;;
63807;SDS011;49961;43.970;22.868;2022-07-29T03:16:20;7.90;;;4.43;;
63807;SDS011;49961;43.970;22.868;2022-07-29T03:17:23;7.03;;;4.70;;
63807;SDS011;49961;43.970;22.868;2022-07-29T03:18:25;6.97;;;4.90;;
63807;SDS011;49961;43.970;22.868;2022-07-29T03:19:25;7.00;;;4.97;;
63807;SDS011;49961;43.970;22.868;2022-07-29T03:20:27;6.00;;;4.70;;
63807;SDS011;49961;43.970;22.868;2022-07-29T03:21:27;8.37;;;4.47;;
63807;SDS011;49961;43.970;22.868;2022-07-29T03:22:28;7.80;;;5.50;;
63807;SDS011;49961;43.970;22.868;2022-07-29T03:23:29;10.20;;;5.03;;
63807;SDS011;49961;43.970;22.868;2022-07-29T03:24:31;5.90;;;5.30;;
63807;SDS011;49961;43.970;22.868;2022-07-29T03:25:33;10.10;;;5.13;;
63807;SDS011;49961;43.970;22.868;2022-07-29T03:26:34;7.50;;;5.40;;
63807;SDS011;49961;43.970;22.868;2022-07-29T03:27:34;8.27;;;5.20;;
63807;SDS011;49961;43.970;22.868;2022-07-29T03:28:35;10.13;;;5.60;;
63807;SDS011;49961;43.970;22.868;2022-07-29T03:29:35;6.23;;;5.50;;
63807;SDS011;49961;43.970;22.868;2022-07-29T03:30:36;6.77;;;5.53;;
63807;SDS011;49961;43.970;22.868;2022-07-29T03:31:36;9.07;;;5.70;;
63807;SDS011;49961;43.970;22.868;2022-07-29T03:32:37;6.90;;;5.47;;
63807;SDS011;49961;43.970;22.868;2022-07-29T03:33:38;6.10;;;5.50;;
63807;SDS011;49961;43.970;22.868;2022-07-29T03:34:38;6.37;;;5.53;;
63807;SDS011;49961;43.970;22.868;2022-07-29T03:35:39;8.70;;;5.73;;
63807;SDS011;49961;43.970;22.868;2022-07-29T03:36:40;6.53;;;5.70;;
63807;SDS011;49961;43.970;22.868;2022-07-29T03:37:40;8.93;;;6.20;;
63807;SDS011;49961;43.970;22.868;2022-07-29T03:38:41;9.17;;;5.90;;
63807;SDS011;49961;43.970;22.868;2022-07-29T03:39:44;9.47;;;6.33;;
63807;SDS011;49961;43.970;22.868;2022-07-29T03:40:59;7.57;;;5.43;;
63807;SDS011;49961;43.970;22.868;2022-07-29T03:42:03;9.83;;;5.93;;
63807;SDS011;49961;43.970;22.868;2022-07-29T03:43:06;6.87;;;6.00;;
63807;SDS011;49961;43.970;22.868;2022-07-29T03:44:08;7.57;;;6.00;;
63807;SDS011;49961;43.970;22.868;2022-07-29T03:45:10;8.30;;;6.40;;
63807;SDS011;49961;43.970;22.868;2022-07-29T03:46:14;6.83;;;5.80;;
63807;SDS011;49961;43.970;22.868;2022-07-29T03:47:18;9.37;;;6.40;;
63807;SDS011;49961;43.970;22.868;2022-07-29T03:48:23;6.87;;;6.17;;
63807;SDS011;49961;43.970;22.868;2022-07-29T03:49:26;6.80;;;6.17;;
63807;SDS011;49961;43.970;22.868;2022-07-29T03:50:28;7.43;;;5.70;;
63807;SDS011;49961;43.970;22.868;2022-07-29T03:51:32;7.97;;;6.30;;
63807;SDS011;49961;43.970;22.868;2022-07-29T03:52:32;8.97;;;6.23;;
63807;SDS011;49961;43.970;22.868;2022-07-29T03:53:33;7.20;;;6.37;;
63807;SDS011;49961;43.970;22.868;2022-07-29T03:54:36;7.90;;;6.13;;
63807;SDS011;49961;43.970;22.868;2022-07-29T03:55:37;9.53;;;6.43;;
63807;SDS011;49961;43.970;22.868;2022-07-29T03:56:42;8.53;;;6.37;;
63807;SDS011;49961;43.970;22.868;2022-07-29T03:57:48;9.30;;;6.50;;
63807;SDS011;49961;43.970;22.868;2022-07-29T03:58:50;7.17;;;5.63;;
63807;SDS011;49961;43.970;22.868;2022-07-29T03:59:52;8.53;;;6.40;;
63807;SDS011;49961;43.970;22.868;2022-07-29T04:00:53;7.73;;;6.57;;
63807;SDS011;49961;43.970;22.868;2022-07-29T04:01:55;7.57;;;6.43;;
63807;SDS011;49961;43.970;22.868;2022-07-29T04:02:57;10.37;;;7.83;;
63807;SDS011;49961;43.970;22.868;2022-07-29T04:03:57;8.53;;;6.90;;
63807;SDS011;49961;43.970;22.868;2022-07-29T04:04:59;7.17;;;6.47;;
63807;SDS011;49961;43.970;22.868;2022-07-29T04:06:04;8.77;;;6.90;;
63807;SDS011;49961;43.970;22.868;2022-07-29T04:07:11;8.47;;;6.50;;
63807;SDS011;49961;43.970;22.868;2022-07-29T04:08:12;10.67;;;7.90;;
63807;SDS011;49961;43.970;22.868;2022-07-29T04:09:12;10.20;;;7.53;;
63807;SDS011;49961;43.970;22.868;2022-07-29T04:10:13;10.80;;;7.90;;
63807;SDS011;49961;43.970;22.868;2022-07-29T04:11:15;10.13;;;7.90;;
63807;SDS011;49961;43.970;22.868;2022-07-29T04:12:16;9.07;;;8.23;;
63807;SDS011;49961;43.970;22.868;2022-07-29T04:13:16;9.97;;;8.00;;
63807;SDS011;49961;43.970;22.868;2022-07-29T04:14:17;10.07;;;8.43;;
63807;SDS011;49961;43.970;22.868;2022-07-29T04:15:17;13.43;;;8.27;;
63807;SDS011;49961;43.970;22.868;2022-07-29T04:16:18;10.77;;;7.97;;
63807;SDS011;49961;43.970;22.868;2022-07-29T04:17:18;10.40;;;8.77;;
63807;SDS011;49961;43.970;22.868;2022-07-29T04:18:19;11.40;;;8.77;;
63807;SDS011;49961;43.970;22.868;2022-07-29T04:19:19;12.27;;;8.73;;
63807;SDS011;49961;43.970;22.868;2022-07-29T04:20:20;12.13;;;8.97;;
63807;SDS011;49961;43.970;22.868;2022-07-29T04:21:20;12.50;;;9.13;;
63807;SDS011;49961;43.970;22.868;2022-07-29T04:22:21;9.97;;;8.97;;
63807;SDS011;49961;43.970;22.868;2022-07-29T04:23:21;10.77;;;9.03;;
63807;SDS011;49961;43.970;22.868;2022-07-29T04:24:22;11.20;;;8.87;;
63807;SDS011;49961;43.970;22.868;2022-07-29T04:25:22;9.63;;;8.57;;
63807;SDS011;49961;43.970;22.868;2022-07-29T04:26:23;10.60;;;7.80;;
63807;SDS011;49961;43.970;22.868;2022-07-29T04:27:23;8.90;;;7.40;;
63807;SDS011;49961;43.970;22.868;2022-07-29T04:28:24;8.63;;;7.20;;
63807;SDS011;49961;43.970;22.868;2022-07-29T04:29:26;10.37;;;7.60;;
63807;SDS011;49961;43.970;22.868;2022-07-29T04:30:26;11.87;;;7.60;;
63807;SDS011;49961;43.970;22.868;2022-07-29T04:31:27;11.37;;;7.90;;
63807;SDS011;49961;43.970;22.868;2022-07-29T04:32:28;12.47;;;7.67;;
63807;SDS011;49961;43.970;22.868;2022-07-29T04:33:28;14.47;;;7.17;;
63807;SDS011;49961;43.970;22.868;2022-07-29T04:34:29;10.77;;;7.60;;
63807;SDS011;49961;43.970;22.868;2022-07-29T04:35:30;9.83;;;7.07;;
63807;SDS011;49961;43.970;22.868;2022-07-29T04:36:31;8.47;;;7.53;;
63807;SDS011;49961;43.970;22.868;2022-07-29T04:37:32;11.27;;;7.50;;
63807;SDS011;49961;43.970;22.868;2022-07-29T04:38:32;11.60;;;7.90;;
63807;SDS011;49961;43.970;22.868;2022-07-29T04:39:33;11.80;;;7.50;;
63807;SDS011;49961;43.970;22.868;2022-07-29T04:40:33;9.77;;;7.83;;
63807;SDS011;49961;43.970;22.868;2022-07-29T04:41:34;11.93;;;8.33;;
63807;SDS011;49961;43.970;22.868;2022-07-29T04:42:34;9.17;;;8.27;;
63807;SDS011;49961;43.970;22.868;2022-07-29T04:43:35;10.87;;;8.20;;
63807;SDS011;49961;43.970;22.868;2022-07-29T04:44:36;12.00;;;8.37;;
63807;SDS011;49961;43.970;22.868;2022-07-29T04:45:36;10.80;;;8.13;;
63807;SDS011;49961;43.970;22.868;2022-07-29T04:46:37;9.80;;;8.80;;
63807;SDS011;49961;43.970;22.868;2022-07-29T04:47:37;9.53;;;8.03;;
63807;SDS011;49961;43.970;22.868;2022-07-29T04:48:38;8.27;;;7.43;;
63807;SDS011;49961;43.970;22.868;2022-07-29T04:49:38;12.17;;;8.00;;
63807;SDS011;49961;43.970;22.868;2022-07-29T04:50:39;12.23;;;8.43;;
63807;SDS011;49961;43.970;22.868;2022-07-29T04:51:40;11.40;;;8.00;;
63807;SDS011;49961;43.970;22.868;2022-07-29T04:52:41;8.93;;;8.03;;
63807;SDS011;49961;43.970;22.868;2022-07-29T04:53:41;10.23;;;8.50;;
63807;SDS011;49961;43.970;22.868;2022-07-29T04:54:42;9.60;;;8.60;;
63807;SDS011;49961;43.970;22.868;2022-07-29T04:55:43;9.47;;;8.37;;
63807;SDS011;49961;43.970;22.868;2022-07-29T04:56:44;9.27;;;8.13;;
63807;SDS011;49961;43.970;22.868;2022-07-29T04:57:46;10.77;;;8.40;;
63807;SDS011;49961;43.970;22.868;2022-07-29T04:58:46;8.97;;;8.07;;
63807;SDS011;49961;43.970;22.868;2022-07-29T04:59:47;9.30;;;8.40;;
63807;SDS011;49961;43.970;22.868;2022-07-29T05:00:48;9.80;;;7.70;;
63807;SDS011;49961;43.970;22.868;2022-07-29T05:01:50;9.50;;;8.57;;
63807;SDS011;49961;43.970;22.868;2022-07-29T05:02:50;9.97;;;8.80;;
63807;SDS011;49961;43.970;22.868;2022-07-29T05:03:50;10.30;;;9.13;;
63807;SDS011;49961;43.970;22.868;2022-07-29T05:04:51;9.43;;;8.13;;
63807;SDS011;49961;43.970;22.868;2022-07-29T05:05:51;9.23;;;8.33;;
63807;SDS011;49961;43.970;22.868;2022-07-29T05:06:52;9.73;;;8.67;;
63807;SDS011;49961;43.970;22.868;2022-07-29T05:07:52;10.70;;;8.50;;
63807;SDS011;49961;43.970;22.868;2022-07-29T05:08:53;10.97;;;9.30;;
63807;SDS011;49961;43.970;22.868;2022-07-29T05:09:53;10.90;;;9.20;;
63807;SDS011;49961;43.970;22.868;2022-07-29T05:10:56;10.07;;;8.57;;
63807;SDS011;49961;43.970;22.868;2022-07-29T05:11:57;9.67;;;8.67;;
63807;SDS011;49961;43.970;22.868;2022-07-29T05:12:58;14.37;;;9.43;;
63807;SDS011;49961;43.970;22.868;2022-07-29T05:13:58;9.77;;;8.37;;
63807;SDS011;49961;43.970;22.868;2022-07-29T05:14:59;10.50;;;9.10;;
63807;SDS011;49961;43.970;22.868;2022-07-29T05:15:59;10.80;;;8.23;;
63807;SDS011;49961;43.970;22.868;2022-07-29T05:17:00;10.03;;;8.53;;
63807;SDS011;49961;43.970;22.868;2022-07-29T05:18:00;11.70;;;8.30;;
63807;SDS011;49961;43.970;22.868;2022-07-29T05:19:01;9.50;;;8.53;;
63807;SDS011;49961;43.970;22.868;2022-07-29T05:20:02;10.17;;;8.63;;
63807;SDS011;49961;43.970;22.868;2022-07-29T05:21:03;9.77;;;8.77;;
63807;SDS011;49961;43.970;22.868;2022-07-29T05:22:04;9.67;;;8.53;;
63807;SDS011;49961;43.970;22.868;2022-07-29T05:23:04;12.17;;;8.73;;
63807;SDS011;49961;43.970;22.868;2022-07-29T05:24:05;13.53;;;9.00;;
63807;SDS011;49961;43.970;22.868;2022-07-29T05:25:05;12.10;;;8.50;;
63807;SDS011;49961;43.970;22.868;2022-07-29T05:26:06;10.60;;;8.63;;
63807;SDS011;49961;43.970;22.868;2022-07-29T05:27:07;11.83;;;8.63;;
63807;SDS011;49961;43.970;22.868;2022-07-29T05:28:08;13.63;;;10.03;;
63807;SDS011;49961;43.970;22.868;2022-07-29T05:29:09;13.30;;;9.73;;
63807;SDS011;49961;43.970;22.868;2022-07-29T05:30:09;12.77;;;9.80;;
63807;SDS011;49961;43.970;22.868;2022-07-29T05:31:10;16.07;;;10.27;;
63807;SDS011;49961;43.970;22.868;2022-07-29T05:32:11;13.07;;;10.50;;
63807;SDS011;49961;43.970;22.868;2022-07-29T05:33:14;17.10;;;11.23;;
63807;SDS011;49961;43.970;22.868;2022-07-29T05:34:15;12.60;;;10.97;;
63807;SDS011;49961;43.970;22.868;2022-07-29T05:35:15;16.37;;;11.27;;
63807;SDS011;49961;43.970;22.868;2022-07-29T05:36:16;18.20;;;11.20;;
63807;SDS011;49961;43.970;22.868;2022-07-29T05:37:17;14.77;;;10.83;;
63807;SDS011;49961;43.970;22.868;2022-07-29T05:38:18;14.33;;;10.50;;
63807;SDS011;49961;43.970;22.868;2022-07-29T05:39:19;13.87;;;10.13;;
63807;SDS011;49961;43.970;22.868;2022-07-29T05:40:19;12.10;;;9.87;;
63807;SDS011;49961;43.970;22.868;2022-07-29T05:41:20;14.83;;;9.70;;
63807;SDS011;49961;43.970;22.868;2022-07-29T05:42:21;13.10;;;9.60;;
63807;SDS011;49961;43.970;22.868;2022-07-29T05:43:21;14.70;;;9.50;;
63807;SDS011;49961;43.970;22.868;2022-07-29T05:44:22;9.80;;;8.50;;
63807;SDS011;49961;43.970;22.868;2022-07-29T05:45:22;11.10;;;8.97;;
63807;SDS011;49961;43.970;22.868;2022-07-29T05:46:24;9.70;;;8.60;;
63807;SDS011;49961;43.970;22.868;2022-07-29T05:47:24;10.90;;;8.50;;
63807;SDS011;49961;43.970;22.868;2022-07-29T05:48:25;11.37;;;8.70;;
63807;SDS011;49961;43.970;22.868;2022-07-29T05:49:26;9.10;;;8.20;;
63807;SDS011;49961;43.970;22.868;2022-07-29T05:50:26;10.10;;;8.20;;
63807;SDS011;49961;43.970;22.868;2022-07-29T05:51:27;13.77;;;9.07;;
63807;SDS011;49961;43.970;22.868;2022-07-29T05:52:27;13.27;;;9.27;;
63807;SDS011;49961;43.970;22.868;2022-07-29T05:53:28;10.40;;;8.97;;
63807;SDS011;49961;43.970;22.868;2022-07-29T05:54:28;9.40;;;8.50;;
63807;SDS011;49961;43.970;22.868;2022-07-29T05:55:29;11.17;;;8.93;;
63807;SDS011;49961;43.970;22.868;2022-07-29T05:56:29;9.70;;;8.80;;
63807;SDS011;49961;43.970;22.868;2022-07-29T05:57:30;10.10;;;9.10;;
63807;SDS011;49961;43.970;22.868;2022-07-29T05:58:30;10.23;;;9.10;;
63807;SDS011;49961;43.970;22.868;2022-07-29T05:59:34;9.80;;;8.80;;
63807;SDS011;49961;43.970;22.868;2022-07-29T06:00:36;9.93;;;8.90;;
63807;SDS011;49961;43.970;22.868;2022-07-29T06:01:36;9.97;;;9.07;;
63807;SDS011;49961;43.970;22.868;2022-07-29T06:02:39;13.37;;;9.73;;
63807;SDS011;49961;43.970;22.868;2022-07-29T06:03:39;10.50;;;9.50;;
63807;SDS011;49961;43.970;22.868;2022-07-29T06:04:41;11.17;;;9.80;;
63807;SDS011;49961;43.970;22.868;2022-07-29T06:05:42;13.57;;;10.10;;
63807;SDS011;49961;43.970;22.868;2022-07-29T06:06:42;11.10;;;9.73;;
63807;SDS011;49961;43.970;22.868;2022-07-29T06:07:43;10.60;;;9.53;;
63807;SDS011;49961;43.970;22.868;2022-07-29T06:08:43;10.17;;;9.13;;
63807;SDS011;49961;43.970;22.868;2022-07-29T06:09:44;11.33;;;10.13;;
63807;SDS011;49961;43.970;22.868;2022-07-29T06:10:44;11.17;;;10.07;;
63807;SDS011;49961;43.970;22.868;2022-07-29T06:11:45;11.80;;;9.43;;
63807;SDS011;49961;43.970;22.868;2022-07-29T06:12:46;11.60;;;10.50;;
63807;SDS011;49961;43.970;22.868;2022-07-29T06:13:46;10.67;;;9.17;;
63807;SDS011;49961;43.970;22.868;2022-07-29T06:14:47;11.90;;;10.00;;
63807;SDS011;49961;43.970;22.868;2022-07-29T06:15:47;10.60;;;9.37;;
63807;SDS011;49961;43.970;22.868;2022-07-29T06:16:48;11.10;;;9.97;;